Time;durP1;ratioP1;P1;durP2;ratioP2;P2;SDS_P1;SDS_P2;PMS_P1;PMS_P2;Temp;Humidity;BMP_temperature;BMP_pressure;BME280_temperature;BME280_humidity;BME280_pressure;Samples;Min_cycle;Max_cycle;Signal;HPM_P1;HPM_P2
2021/10/10 00:01:05;;;;;;;;;;;9.50;99.70;;;;;;4938436;28;19927;-74
2021/10/10 00:03:55;;;;;;;;;;;9.50;99.70;;;;;;4919631;29;20679;-75
2021/10/10 00:06:43;;;;;;;;;;;9.50;99.80;;;;;;4939633;29;19986;-75
2021/10/10 00:09:31;;;;;;;;;;;9.50;99.80;;;;;;4936611;28;19949;-74
2021/10/10 00:12:20;;;;;;;;;;;9.50;99.70;;;;;;4925468;29;19934;-75
2021/10/10 00:15:11;;;;;;;;;;;9.50;99.70;;;;;;4940329;29;20227;-75
2021/10/10 00:18:00;;;;;;;;;;;9.50;99.80;;;;;;4932312;29;19934;-75
2021/10/10 00:20:50;;;;;;;;;;;9.50;99.80;;;;;;4940366;29;20010;-74
2021/10/10 00:23:39;;;;;;;;;;;9.50;99.80;;;;;;4937307;28;19927;-76
2021/10/10 00:26:28;;;;;;;;;;;9.50;99.80;;;;;;4934936;28;19927;-74
2021/10/10 00:29:24;;;;;;;;;;;9.40;99.70;;;;;;4940301;29;19927;-74
2021/10/10 00:32:14;;;;;;;;;;;9.40;99.70;;;;;;4932306;28;19934;-74
2021/10/10 00:35:03;;;;;;;;;;;9.40;99.80;;;;;;4941239;28;20261;-75
2021/10/10 00:37:52;;;;;;;;;;;9.30;99.90;;;;;;4924892;29;19942;-74
2021/10/10 00:40:43;;;;;;;;;;;9.30;99.90;;;;;;4939884;29;19934;-75
2021/10/10 00:43:31;;;;;;;;;;;9.20;99.90;;;;;;4940159;28;19930;-75
2021/10/10 00:46:20;;;;;;;;;;;9.20;99.90;;;;;;4925697;28;19930;-75
2021/10/10 00:49:11;;;;;;;;;;;9.10;99.90;;;;;;4925544;29;20241;-75
2021/10/10 00:52:00;;;;;;;;;;;9.10;99.90;;;;;;4920824;29;20026;-75
2021/10/10 00:54:51;;;;;;;;;;;9.10;99.90;;;;;;4934901;29;20017;-74
2021/10/10 00:57:46;;;;;;;;;;;9.10;99.90;;;;;;4930667;29;19934;-75
2021/10/10 01:00:35;;;;;;;;;;;9.00;99.90;;;;;;4929390;28;19950;-75
2021/10/10 01:03:24;;;;;;;;;;;9.00;99.90;;;;;;4934992;29;19933;-76
2021/10/10 01:06:15;;;;;;;;;;;9.00;99.90;;;;;;4924522;29;19933;-76
2021/10/10 01:09:04;;;;;;;;;;;9.00;99.90;;;;;;4938738;29;19927;-74
2021/10/10 01:11:53;;;;;;;;;;;8.90;99.90;;;;;;4940369;28;20277;-74
2021/10/10 01:14:42;;;;;;;;;;;8.90;99.90;;;;;;4934804;29;20279;-75
2021/10/10 01:17:30;;;;;;;;;;;8.80;99.90;;;;;;4934649;28;19931;-75
2021/10/10 01:20:19;;;;;;;;;;;8.80;99.90;;;;;;4940457;29;19938;-74
2021/10/10 01:23:34;;;;;;;;;;;8.80;99.90;;;;;;4940235;28;19931;-75
2021/10/10 01:26:23;;;;;;;;;;;8.70;99.90;;;;;;4942705;28;19927;-75
2021/10/10 01:32:25;;;;;;;;;;;8.70;99.90;;;;;;4936398;28;19931;-74
2021/10/10 01:35:14;;;;;;;;;;;8.70;99.90;;;;;;4938458;29;19933;-76
2021/10/10 01:38:04;;;;;;;;;;;8.70;99.90;;;;;;4934548;29;20005;-74
2021/10/10 01:40:55;;;;;;;;;;;8.70;99.90;;;;;;4937171;29;19927;-75
2021/10/10 01:43:43;;;;;;;;;;;8.70;99.90;;;;;;4920422;29;20083;-75
2021/10/10 01:46:33;;;;;;;;;;;8.70;99.90;;;;;;4939545;28;19965;-74
2021/10/10 01:49:21;;;;;;;;;;;8.70;99.90;;;;;;4925773;29;19934;-75
2021/10/10 01:52:10;;;;;;;;;;;8.70;99.90;;;;;;4939567;29;19931;-76
2021/10/10 01:54:58;;;;;;;;;;;8.60;99.90;;;;;;4939893;28;19931;-75
2021/10/10 01:58:13;;;;;;;;;;;8.60;99.90;;;;;;4928831;29;19935;-75
2021/10/10 02:01:05;;;;;;;;;;;8.60;99.90;;;;;;4926049;29;19927;-75
2021/10/10 02:04:18;;;;;;;;;;;8.60;99.90;;;;;;4939803;28;20005;-75
2021/10/10 02:07:07;;;;;;;;;;;8.50;99.90;;;;;;4924321;29;20287;-75
2021/10/10 02:09:56;;;;;;;;;;;8.50;99.90;;;;;;4933109;29;19927;-74
2021/10/10 02:12:45;;;;;;;;;;;8.40;99.90;;;;;;4933668;29;20249;-75
2021/10/10 02:15:33;;;;;;;;;;;8.30;99.90;;;;;;4938236;28;20308;-75
2021/10/10 02:18:23;;;;;;;;;;;8.40;99.90;;;;;;4941681;28;19993;-74
2021/10/10 02:21:12;;;;;;;;;;;8.30;99.90;;;;;;4927755;28;20030;-74
2021/10/10 02:24:00;;;;;;;;;;;8.30;99.90;;;;;;4937755;28;19926;-74
2021/10/10 02:26:50;;;;;;;;;;;8.30;99.90;;;;;;4925044;29;19931;-76
2021/10/10 02:29:39;;;;;;;;;;;8.30;99.90;;;;;;4939262;28;19927;-75
2021/10/10 02:32:28;;;;;;;;;;;8.40;99.90;;;;;;4937848;28;19931;-77
2021/10/10 02:35:18;;;;;;;;;;;8.40;99.90;;;;;;4924793;29;19927;-75
2021/10/10 02:38:08;;;;;;;;;;;8.40;99.90;;;;;;4938903;28;19952;-75
2021/10/10 02:40:57;;;;;;;;;;;8.40;99.90;;;;;;4924475;29;19942;-76
2021/10/10 02:43:48;;;;;;;;;;;8.40;99.90;;;;;;4938991;28;19948;-74
2021/10/10 02:46:37;;;;;;;;;;;8.40;99.90;;;;;;4933498;28;19941;-75
2021/10/10 02:49:26;;;;;;;;;;;8.30;99.90;;;;;;4937373;29;19927;-75
2021/10/10 02:55:30;;;;;;;;;;;8.20;99.90;;;;;;4933150;29;19931;-74
2021/10/10 02:58:20;;;;;;;;;;;8.20;99.90;;;;;;4937848;29;20264;-75
2021/10/10 03:01:09;;;;;;;;;;;8.20;99.90;;;;;;4932001;28;19942;-74
2021/10/10 03:03:59;;;;;;;;;;;8.20;99.90;;;;;;4938636;28;20029;-75
2021/10/10 03:06:47;;;;;;;;;;;8.20;99.90;;;;;;4920420;28;19927;-75
2021/10/10 03:09:37;;;;;;;;;;;8.20;99.90;;;;;;4937637;28;19934;-75
2021/10/10 03:12:26;;;;;;;;;;;8.10;99.90;;;;;;4910826;29;20391;-75
2021/10/10 03:15:14;;;;;;;;;;;8.20;99.90;;;;;;4923649;28;19931;-75
2021/10/10 03:18:03;;;;;;;;;;;8.20;99.90;;;;;;4936899;29;19934;-75
2021/10/10 03:20:52;;;;;;;;;;;8.10;99.90;;;;;;4914788;29;20379;-74
2021/10/10 03:23:42;;;;;;;;;;;8.00;99.90;;;;;;4935857;29;19937;-75
2021/10/10 03:26:32;;;;;;;;;;;8.00;99.90;;;;;;4918270;29;20269;-74
2021/10/10 03:29:21;;;;;;;;;;;8.00;99.90;;;;;;4923751;29;19934;-74
2021/10/10 03:32:11;;;;;;;;;;;8.00;99.90;;;;;;4930702;28;20373;-74
2021/10/10 03:35:00;;;;;;;;;;;8.00;99.90;;;;;;4936744;29;19970;-74
2021/10/10 03:37:49;;;;;;;;;;;8.00;99.90;;;;;;4922484;29;20021;-74
2021/10/10 03:40:38;;;;;;;;;;;8.00;99.90;;;;;;4933532;29;20375;-74
2021/10/10 03:43:28;;;;;;;;;;;8.00;99.90;;;;;;4935711;29;19930;-76
2021/10/10 03:46:17;;;;;;;;;;;8.10;99.90;;;;;;4936843;28;19934;-74
2021/10/10 03:49:07;;;;;;;;;;;8.00;99.90;;;;;;4933847;29;19931;-76
2021/10/10 03:55:29;;;;;;;;;;;8.00;99.90;;;;;;4933084;29;19927;-74
2021/10/10 03:58:18;;;;;;;;;;;7.90;99.90;;;;;;4937091;28;20394;-74
2021/10/10 04:01:08;;;;;;;;;;;7.90;99.90;;;;;;4932356;28;19978;-75
2021/10/10 04:03:57;;;;;;;;;;;7.80;99.90;;;;;;4924024;29;20320;-74
2021/10/10 04:06:46;;;;;;;;;;;7.80;99.90;;;;;;4931783;29;19927;-74
2021/10/10 04:09:35;;;;;;;;;;;7.80;99.90;;;;;;4937850;29;20063;-75
2021/10/10 04:12:24;;;;;;;;;;;7.80;99.90;;;;;;4919651;29;19934;-74
2021/10/10 04:15:12;;;;;;;;;;;7.80;99.90;;;;;;4927182;29;19986;-75
2021/10/10 04:18:05;;;;;;;;;;;7.80;99.90;;;;;;4934771;29;19931;-74
2021/10/10 04:20:56;;;;;;;;;;;7.70;99.90;;;;;;4934949;28;19926;-74
2021/10/10 04:23:45;;;;;;;;;;;7.80;99.90;;;;;;4934327;29;19934;-75
2021/10/10 04:26:34;;;;;;;;;;;7.70;99.90;;;;;;4916356;29;19927;-74
2021/10/10 04:29:23;;;;;;;;;;;7.80;99.90;;;;;;4934073;28;19933;-74
2021/10/10 04:32:12;;;;;;;;;;;7.70;99.90;;;;;;4929343;28;19927;-74
2021/10/10 04:35:02;;;;;;;;;;;7.60;99.90;;;;;;4935343;29;19930;-74
2021/10/10 04:37:51;;;;;;;;;;;7.60;99.90;;;;;;4938577;28;19986;-75
2021/10/10 04:40:40;;;;;;;;;;;7.50;99.90;;;;;;4924103;29;20299;-74
2021/10/10 04:43:29;;;;;;;;;;;7.50;99.90;;;;;;4939383;28;20013;-75
2021/10/10 04:46:18;;;;;;;;;;;7.40;99.90;;;;;;4917958;28;19927;-75
2021/10/10 04:49:07;;;;;;;;;;;7.40;99.90;;;;;;4933268;29;19931;-74
2021/10/10 04:52:20;;;;;;;;;;;7.40;99.90;;;;;;4934211;29;19930;-76
2021/10/10 04:55:14;;;;;;;;;;;7.30;99.90;;;;;;4931041;29;20333;-75
2021/10/10 04:58:03;;;;;;;;;;;7.10;99.90;;;;;;4940162;28;20021;-75
2021/10/10 05:00:52;;;;;;;;;;;7.00;99.90;;;;;;4917769;28;19931;-76
2021/10/10 05:03:40;;;;;;;;;;;6.90;99.90;;;;;;4939108;29;20380;-75
2021/10/10 05:06:29;;;;;;;;;;;6.80;99.90;;;;;;4924064;29;20391;-76
2021/10/10 05:09:18;;;;;;;;;;;6.80;99.90;;;;;;4938012;29;19945;-76
2021/10/10 05:12:09;;;;;;;;;;;6.80;99.90;;;;;;4939009;28;19931;-75
2021/10/10 05:14:58;;;;;;;;;;;6.90;99.90;;;;;;4941769;29;19927;-75
2021/10/10 05:17:46;;;;;;;;;;;6.90;99.90;;;;;;4939725;29;19927;-74
2021/10/10 05:20:35;;;;;;;;;;;6.90;99.90;;;;;;4923608;29;19931;-74
2021/10/10 05:23:24;;;;;;;;;;;7.00;99.90;;;;;;4922545;28;19938;-75
2021/10/10 05:26:16;;;;;;;;;;;7.00;99.90;;;;;;4921390;29;19931;-75
2021/10/10 05:29:06;;;;;;;;;;;7.00;99.90;;;;;;4920168;29;19942;-76
2021/10/10 05:31:55;;;;;;;;;;;7.00;99.90;;;;;;4926622;28;19927;-75
2021/10/10 05:34:44;;;;;;;;;;;7.00;99.90;;;;;;4931437;28;19931;-74
2021/10/10 05:37:32;;;;;;;;;;;7.10;99.90;;;;;;4920744;28;19934;-75
2021/10/10 05:40:21;;;;;;;;;;;6.90;99.90;;;;;;4924647;29;19942;-75
2021/10/10 05:43:14;;;;;;;;;;;6.80;99.90;;;;;;4935201;28;19950;-76
2021/10/10 05:46:10;;;;;;;;;;;6.80;99.90;;;;;;4925257;29;19927;-75
2021/10/10 05:48:59;;;;;;;;;;;6.70;99.90;;;;;;4922617;29;19926;-76
2021/10/10 05:51:50;;;;;;;;;;;6.70;99.90;;;;;;4928886;28;19927;-75
2021/10/10 05:54:39;;;;;;;;;;;6.70;99.90;;;;;;4931254;29;19934;-76
2021/10/10 05:57:33;;;;;;;;;;;6.70;99.90;;;;;;4922044;29;19927;-75
2021/10/10 06:00:22;;;;;;;;;;;6.80;99.90;;;;;;4921451;28;19938;-75
2021/10/10 06:03:13;;;;;;;;;;;6.80;99.90;;;;;;4924697;29;19930;-75
2021/10/10 06:06:01;;;;;;;;;;;6.80;99.90;;;;;;4925812;29;20329;-75
2021/10/10 06:08:50;;;;;;;;;;;6.80;99.90;;;;;;4929162;28;19927;-75
2021/10/10 06:11:41;;;;;;;;;;;6.80;99.90;;;;;;4929028;29;20145;-76
2021/10/10 06:14:30;;;;;;;;;;;6.70;99.90;;;;;;4928271;29;19995;-75
2021/10/10 06:20:33;;;;;;;;;;;6.80;99.90;;;;;;4932367;28;19947;-76
2021/10/10 06:23:22;;;;;;;;;;;6.80;99.90;;;;;;4933158;29;19930;-72
2021/10/10 06:26:11;;;;;;;;;;;6.80;99.90;;;;;;4923382;29;20387;-73
2021/10/10 06:29:00;;;;;;;;;;;6.80;99.90;;;;;;4927585;28;20440;-74
2021/10/10 06:31:50;;;;;;;;;;;6.80;99.90;;;;;;4927284;28;19930;-73
2021/10/10 06:34:40;;;;;;;;;;;6.80;99.90;;;;;;4927980;28;19927;-73
2021/10/10 06:37:32;;;;;;;;;;;6.90;99.90;;;;;;4930724;29;19927;-74
2021/10/10 06:40:22;;;;;;;;;;;6.90;99.90;;;;;;4931026;29;20300;-73
2021/10/10 06:43:10;;;;;;;;;;;6.90;99.90;;;;;;4917184;28;19935;-73
2021/10/10 06:46:25;;;;;;;;;;;6.90;99.90;;;;;;4922347;28;19934;-73
2021/10/10 06:49:14;;;;;;;;;;;7.00;99.90;;;;;;4929407;29;19938;-74
2021/10/10 06:55:18;;;;;;;;;;;7.00;99.90;;;;;;4926030;28;21263;-75
2021/10/10 06:58:07;;;;;;;;;;;7.10;99.90;;;;;;4929891;29;19931;-74
2021/10/10 07:00:56;;;;;;;;;;;7.20;99.90;;;;;;4927457;28;19937;-74
2021/10/10 07:03:45;;;;;;;;;;;7.30;99.90;;;;;;4934477;29;20282;-73
2021/10/10 07:06:33;;;;;;;;;;;7.40;99.90;;;;;;4918971;29;20021;-74
2021/10/10 07:09:22;;;;;;;;;;;7.50;99.90;;;;;;4931856;29;20347;-74
2021/10/10 07:12:12;;;;;;;;;;;7.50;99.90;;;;;;4920837;29;20486;-70
2021/10/10 07:15:01;;;;;;;;;;;7.60;99.90;;;;;;4930517;28;19930;-72
2021/10/10 07:17:58;;;;;;;;;;;7.60;99.90;;;;;;4936383;28;19934;-77
2021/10/10 07:20:57;;;;;;;;;;;7.70;99.90;;;;;;4934231;29;19931;-78
2021/10/10 07:24:07;;;;;;;;;;;7.80;99.90;;;;;;4943129;29;19927;-80
2021/10/10 07:26:56;;;;;;;;;;;7.90;99.90;;;;;;4939276;28;19934;-80
2021/10/10 07:29:48;;;;;;;;;;;8.00;99.90;;;;;;4937186;29;19927;-80
2021/10/10 07:32:38;;;;;;;;;;;8.10;99.90;;;;;;4932184;28;19938;-80
2021/10/10 07:35:30;;;;;;;;;;;8.20;99.90;;;;;;4927491;29;19915;-80
2021/10/10 07:38:19;;;;;;;;;;;8.30;99.90;;;;;;4944872;29;19927;-81
2021/10/10 07:41:09;;;;;;;;;;;8.40;99.90;;;;;;4930133;29;19934;-80
2021/10/10 07:43:58;;;;;;;;;;;8.40;99.90;;;;;;4927255;29;20017;-81
2021/10/10 07:46:55;;;;;;;;;;;8.50;99.90;;;;;;4930784;28;19927;-81
2021/10/10 07:49:45;;;;;;;;;;;8.60;99.90;;;;;;4936831;28;19942;-79
2021/10/10 07:52:34;;;;;;;;;;;8.70;99.90;;;;;;4930508;29;19997;-80
2021/10/10 07:55:25;;;;;;;;;;;8.80;99.90;;;;;;4924882;29;19927;-80
2021/10/10 07:58:14;;;;;;;;;;;8.90;99.90;;;;;;4914477;29;20304;-80
2021/10/10 08:01:06;;;;;;;;;;;8.90;99.90;;;;;;4921463;29;19927;-80
2021/10/10 08:03:56;;;;;;;;;;;9.00;99.90;;;;;;4923779;29;19967;-78
2021/10/10 08:06:46;;;;;;;;;;;9.10;99.90;;;;;;4931378;28;19934;-78
2021/10/10 08:09:35;;;;;;;;;;;9.10;99.80;;;;;;4932691;28;19983;-78
2021/10/10 08:12:24;;;;;;;;;;;9.20;99.90;;;;;;4930672;28;20291;-79
2021/10/10 08:15:12;;;;;;;;;;;9.30;99.90;;;;;;4928544;29;19954;-75
2021/10/10 08:18:02;;;;;;;;;;;9.40;99.80;;;;;;4931226;29;19927;-75
2021/10/10 08:20:53;;;;;;;;;;;9.50;99.70;;;;;;4914988;29;19934;-76
2021/10/10 08:23:43;;;;;;;;;;;9.60;99.70;;;;;;4932513;28;19927;-75
2021/10/10 08:26:33;;;;;;;;;;;9.70;99.10;;;;;;4913469;29;20423;-75
2021/10/10 08:29:22;;;;;;;;;;;9.80;99.00;;;;;;4929993;28;20279;-76
2021/10/10 08:32:11;;;;;;;;;;;9.90;99.00;;;;;;4929512;28;20036;-76
2021/10/10 08:35:00;;;;;;;;;;;10.00;98.00;;;;;;4932732;29;19927;-76
2021/10/10 08:37:50;;;;;;;;;;;10.10;98.10;;;;;;4922529;28;19927;-76
2021/10/10 08:40:40;;;;;;;;;;;10.10;98.00;;;;;;4927338;29;19934;-76
2021/10/10 08:43:30;;;;;;;;;;;10.20;98.20;;;;;;4931677;28;19934;-75
2021/10/10 08:46:23;;;;;;;;;;;10.30;97.50;;;;;;4923230;28;20002;-75
2021/10/10 08:49:14;;;;;;;;;;;10.40;97.60;;;;;;4916366;28;19935;-76
2021/10/10 08:52:28;;;;;;;;;;;10.50;97.20;;;;;;4930999;29;19962;-75
2021/10/10 08:55:18;;;;;;;;;;;10.60;96.30;;;;;;4933854;29;19927;-76
2021/10/10 08:58:09;;;;;;;;;;;10.70;96.70;;;;;;4919873;29;20017;-76
2021/10/10 09:01:02;;;;;;;;;;;10.80;96.60;;;;;;4929906;28;19954;-75
2021/10/10 09:03:55;;;;;;;;;;;10.90;96.00;;;;;;4919044;29;19930;-75
2021/10/10 09:06:43;;;;;;;;;;;11.00;95.70;;;;;;4917806;29;19962;-76
2021/10/10 09:09:32;;;;;;;;;;;11.10;95.50;;;;;;4921561;29;19931;-75
2021/10/10 09:12:28;;;;;;;;;;;11.10;95.70;;;;;;4932043;28;20379;-77
2021/10/10 09:15:18;;;;;;;;;;;11.20;95.90;;;;;;4929362;28;19958;-79
2021/10/10 09:18:08;;;;;;;;;;;11.30;96.20;;;;;;4927269;29;19930;-80
2021/10/10 09:20:57;;;;;;;;;;;11.50;95.80;;;;;;4915890;29;19937;-77
2021/10/10 09:23:46;;;;;;;;;;;11.60;95.10;;;;;;4931319;28;19941;-78
2021/10/10 09:26:41;;;;;;;;;;;11.60;95.00;;;;;;4934212;29;19953;-77
2021/10/10 09:29:38;;;;;;;;;;;11.70;95.00;;;;;;4923816;29;19927;-78
2021/10/10 09:32:28;;;;;;;;;;;11.70;94.70;;;;;;4913408;29;19935;-79
2021/10/10 09:35:24;;;;;;;;;;;11.80;95.00;;;;;;4929900;29;19995;-80
2021/10/10 09:38:16;;;;;;;;;;;11.90;94.70;;;;;;4931886;29;19991;-80
2021/10/10 09:41:14;;;;;;;;;;;12.00;94.20;;;;;;4922786;29;19943;-80
2021/10/10 09:44:08;;;;;;;;;;;12.10;94.00;;;;;;4921413;29;19966;-78
2021/10/10 09:47:01;;;;;;;;;;;12.20;93.80;;;;;;4918188;28;20463;-78
2021/10/10 09:49:49;;;;;;;;;;;12.30;93.60;;;;;;4922445;29;20018;-77
2021/10/10 09:52:38;;;;;;;;;;;12.40;93.60;;;;;;4922112;29;19938;-77
2021/10/10 09:55:28;;;;;;;;;;;12.50;93.00;;;;;;4924622;29;20344;-78
2021/10/10 09:58:34;;;;;;;;;;;12.60;92.90;;;;;;4916700;29;19927;-75
2021/10/10 10:01:23;;;;;;;;;;;12.60;93.20;;;;;;4923450;29;19958;-75
2021/10/10 10:04:15;;;;;;;;;;;12.60;93.30;;;;;;4921161;28;19931;-77
2021/10/10 10:07:05;;;;;;;;;;;12.70;93.10;;;;;;4916786;29;20018;-74
2021/10/10 10:09:54;;;;;;;;;;;12.80;93.10;;;;;;4919719;29;19928;-74
2021/10/10 10:12:44;;;;;;;;;;;12.80;92.30;;;;;;4917103;28;19931;-74
2021/10/10 10:15:34;;;;;;;;;;;12.70;92.00;;;;;;4915681;29;20423;-75
2021/10/10 10:18:24;;;;;;;;;;;12.80;92.50;;;;;;4916571;29;20006;-76
2021/10/10 10:21:14;;;;;;;;;;;12.90;93.00;;;;;;4923182;29;20284;-75
2021/10/10 10:24:07;;;;;;;;;;;13.00;92.80;;;;;;4918880;29;20078;-75
2021/10/10 10:26:56;;;;;;;;;;;13.00;92.90;;;;;;4916865;29;20271;-75
2021/10/10 10:29:47;;;;;;;;;;;13.10;92.80;;;;;;4917293;28;19927;-75
2021/10/10 10:32:37;;;;;;;;;;;13.10;93.00;;;;;;4936222;29;19946;-77
2021/10/10 10:35:27;;;;;;;;;;;13.10;92.50;;;;;;4931676;29;19986;-75
2021/10/10 10:38:17;;;;;;;;;;;13.20;92.40;;;;;;4936373;29;20172;-71
2021/10/10 10:41:36;;;;;;;;;;;13.20;92.40;;;;;;4940989;29;19930;-76
2021/10/10 10:44:34;;;;;;;;;;;13.30;92.30;;;;;;4921516;29;20372;-75
2021/10/10 10:47:25;;;;;;;;;;;13.40;92.10;;;;;;4925582;29;19926;-72
2021/10/10 10:50:15;;;;;;;;;;;13.50;92.00;;;;;;4916764;28;20372;-66
2021/10/10 10:53:05;;;;;;;;;;;13.50;91.80;;;;;;4942318;29;19927;-76
2021/10/10 10:55:56;;;;;;;;;;;13.60;91.20;;;;;;4937859;28;20394;-76
2021/10/10 10:58:45;;;;;;;;;;;13.60;91.10;;;;;;4941040;28;19927;-74
2021/10/10 11:01:52;;;;;;;;;;;13.60;90.90;;;;;;4931169;28;20069;-77
2021/10/10 11:05:02;;;;;;;;;;;13.70;90.70;;;;;;4922672;29;20302;-77
2021/10/10 11:07:51;;;;;;;;;;;13.70;90.30;;;;;;4928463;28;19938;-73
2021/10/10 11:10:39;;;;;;;;;;;13.70;90.20;;;;;;4936960;28;19951;-73
2021/10/10 11:13:37;;;;;;;;;;;13.60;90.10;;;;;;4923713;29;19927;-76
2021/10/10 11:16:33;;;;;;;;;;;13.60;90.30;;;;;;4919115;28;19934;-76
2021/10/10 11:19:28;;;;;;;;;;;13.60;90.50;;;;;;4923750;29;20047;-75
2021/10/10 11:22:20;;;;;;;;;;;13.70;90.40;;;;;;4920018;29;19938;-75
2021/10/10 11:25:09;;;;;;;;;;;13.70;90.50;;;;;;4938116;29;19938;-73
2021/10/10 11:27:58;;;;;;;;;;;13.70;90.30;;;;;;4937391;29;19927;-75
2021/10/10 11:30:48;;;;;;;;;;;13.80;90.10;;;;;;4934308;28;19998;-73
2021/10/10 11:33:38;;;;;;;;;;;13.80;89.30;;;;;;4937850;28;19941;-72
2021/10/10 11:36:34;;;;;;;;;;;13.80;89.80;;;;;;4937584;29;19941;-75
2021/10/10 11:39:24;;;;;;;;;;;13.70;90.40;;;;;;4935661;29;19927;-73
2021/10/10 11:42:13;;;;;;;;;;;13.70;89.70;;;;;;4930821;29;20399;-72
2021/10/10 11:45:02;;;;;;;;;;;13.70;89.90;;;;;;4934610;29;19949;-74
2021/10/10 11:48:38;;;;;;;;;;;13.80;88.90;;;;;;4937425;29;20297;-75
2021/10/10 11:51:34;;;;;;;;;;;13.80;88.10;;;;;;4927500;29;20017;-73
2021/10/10 11:54:27;;;;;;;;;;;13.80;88.30;;;;;;4937874;28;19935;-74
2021/10/10 11:57:16;;;;;;;;;;;13.90;86.40;;;;;;4926843;28;19950;-73
2021/10/10 12:00:07;;;;;;;;;;;13.90;86.30;;;;;;4930863;29;20001;-71
2021/10/10 12:03:09;;;;;;;;;;;13.90;84.70;;;;;;4932206;29;20296;-73
2021/10/10 12:05:59;;;;;;;;;;;13.80;85.30;;;;;;4933867;29;20450;-75
2021/10/10 12:08:48;;;;;;;;;;;13.90;85.60;;;;;;4932700;29;19931;-71
2021/10/10 12:11:39;;;;;;;;;;;13.90;85.50;;;;;;4934272;29;19930;-75
2021/10/10 12:14:40;;;;;;;;;;;14.00;85.00;;;;;;4935358;23;19931;-70
2021/10/10 12:17:31;;;;;;;;;;;14.00;84.90;;;;;;4916017;29;20029;-69
2021/10/10 12:23:38;;;;;;;;;;;14.10;84.50;;;;;;4885553;29;20414;-74
2021/10/10 12:26:29;;;;;;;;;;;14.10;84.80;;;;;;4928083;23;19935;-70
2021/10/10 12:29:22;;;;;;;;;;;14.10;85.60;;;;;;4925656;28;19937;-69
2021/10/10 12:32:19;;;;;;;;;;;14.10;85.20;;;;;;4942598;23;19938;-74
2021/10/10 12:35:14;;;;;;;;;;;14.10;84.70;;;;;;4918742;29;19930;-77
2021/10/10 12:38:03;;;;;;;;;;;14.10;85.00;;;;;;4932593;29;19927;-75
2021/10/10 12:40:55;;;;;;;;;;;14.20;86.40;;;;;;4935426;29;19934;-76
2021/10/10 12:43:44;;;;;;;;;;;14.30;85.90;;;;;;4926253;28;19927;-76
2021/10/10 12:46:46;;;;;;;;;;;14.40;84.50;;;;;;4936189;28;19938;-72
2021/10/10 12:49:35;;;;;;;;;;;14.40;84.70;;;;;;4937740;28;19938;-73
2021/10/10 12:52:35;;;;;;;;;;;14.30;84.90;;;;;;4924813;23;19958;-62
2021/10/10 12:55:26;;;;;;;;;;;14.30;85.90;;;;;;4911071;29;19927;-63
2021/10/10 12:58:16;;;;;;;;;;;14.30;86.10;;;;;;4901930;29;19934;-62
2021/10/10 13:01:07;;;;;;;;;;;14.30;86.40;;;;;;4905520;29;20332;-64
2021/10/10 13:03:57;;;;;;;;;;;14.30;86.90;;;;;;4917453;28;19935;-63
2021/10/10 13:06:46;;;;;;;;;;;14.30;86.80;;;;;;4915096;29;20021;-62
2021/10/10 13:12:51;;;;;;;;;;;14.30;86.90;;;;;;4915613;29;20247;-62
2021/10/10 13:15:41;;;;;;;;;;;14.40;86.20;;;;;;4910576;29;19938;-64
2021/10/10 13:18:31;;;;;;;;;;;14.30;85.90;;;;;;4918628;29;19938;-65
2021/10/10 13:21:19;;;;;;;;;;;14.40;87.60;;;;;;4922624;29;20072;-64
2021/10/10 13:24:09;;;;;;;;;;;14.40;87.50;;;;;;4913191;29;19931;-64
2021/10/10 13:26:57;;;;;;;;;;;14.40;87.20;;;;;;4915772;29;19930;-64
2021/10/10 13:29:46;;;;;;;;;;;14.50;87.30;;;;;;4913116;29;19933;-64
2021/10/10 13:32:36;;;;;;;;;;;14.50;87.30;;;;;;4915007;29;20379;-64
2021/10/10 13:35:25;;;;;;;;;;;14.50;86.60;;;;;;4913308;29;19934;-63
2021/10/10 13:38:14;;;;;;;;;;;14.50;86.80;;;;;;4924228;29;20331;-65
2021/10/10 13:41:07;;;;;;;;;;;14.50;87.00;;;;;;4924478;29;20041;-64
2021/10/10 13:43:55;;;;;;;;;;;14.50;88.40;;;;;;4923378;29;19966;-65
2021/10/10 13:46:44;;;;;;;;;;;14.50;87.20;;;;;;4913964;29;19962;-64
2021/10/10 13:49:42;;;;;;;;;;;14.50;87.60;;;;;;4914589;29;19935;-64
2021/10/10 13:52:31;;;;;;;;;;;14.40;87.60;;;;;;4913907;29;19953;-65
2021/10/10 13:55:21;;;;;;;;;;;14.50;87.60;;;;;;4918228;29;19926;-64
2021/10/10 13:58:09;;;;;;;;;;;14.50;87.80;;;;;;4929311;28;19937;-64
2021/10/10 14:00:58;;;;;;;;;;;14.50;88.00;;;;;;4909443;29;20276;-65
2021/10/10 14:03:47;;;;;;;;;;;14.60;88.00;;;;;;4917024;28;19938;-65
2021/10/10 14:07:01;;;;;;;;;;;14.60;87.90;;;;;;4914495;29;20340;-64
2021/10/10 14:09:52;;;;;;;;;;;14.60;88.40;;;;;;4915039;29;19927;-64
2021/10/10 14:12:42;;;;;;;;;;;14.60;87.30;;;;;;4901711;29;20089;-64
2021/10/10 14:15:30;;;;;;;;;;;14.60;87.20;;;;;;4914364;29;20474;-63
2021/10/10 14:18:20;;;;;;;;;;;14.60;87.10;;;;;;4916302;29;19935;-64
2021/10/10 14:21:11;;;;;;;;;;;14.60;87.90;;;;;;4904307;29;20036;-64
2021/10/10 14:24:00;;;;;;;;;;;14.70;87.30;;;;;;4920586;29;20013;-63
2021/10/10 14:26:51;;;;;;;;;;;14.70;87.80;;;;;;4912836;29;19931;-64
2021/10/10 14:29:40;;;;;;;;;;;14.70;88.40;;;;;;4917767;29;20096;-64
2021/10/10 14:32:30;;;;;;;;;;;14.70;88.50;;;;;;4919563;29;20054;-63
2021/10/10 14:35:18;;;;;;;;;;;14.70;88.10;;;;;;4924320;29;20360;-64
2021/10/10 14:38:07;;;;;;;;;;;14.70;87.30;;;;;;4925996;28;19935;-64
2021/10/10 14:41:01;;;;;;;;;;;14.80;86.30;;;;;;4922957;28;20380;-67
2021/10/10 14:44:03;;;;;;;;;;;14.70;85.80;;;;;;4917364;29;20020;-64
2021/10/10 14:47:13;;;;;;;;;;;14.80;86.10;;;;;;4913692;28;19927;-64
2021/10/10 14:50:02;;;;;;;;;;;14.90;87.20;;;;;;4902762;29;19990;-65
2021/10/10 14:52:51;;;;;;;;;;;14.90;88.00;;;;;;4915756;29;20383;-64
2021/10/10 14:55:43;;;;;;;;;;;15.00;87.80;;;;;;4915455;29;20034;-63
2021/10/10 14:58:33;;;;;;;;;;;15.00;86.90;;;;;;4916657;29;19950;-63
2021/10/10 15:01:24;;;;;;;;;;;15.10;87.10;;;;;;4909731;29;19950;-64
2021/10/10 15:04:13;;;;;;;;;;;15.10;86.70;;;;;;4915590;29;19991;-63
2021/10/10 15:07:20;;;;;;;;;;;15.10;86.20;;;;;;4912616;29;19937;-64
2021/10/10 15:10:10;;;;;;;;;;;15.10;86.80;;;;;;4902434;29;19990;-63
2021/10/10 15:13:00;;;;;;;;;;;15.10;86.30;;;;;;4912175;29;19927;-63
2021/10/10 15:15:49;;;;;;;;;;;15.00;85.70;;;;;;4911152;29;19933;-63
2021/10/10 15:18:40;;;;;;;;;;;15.10;84.40;;;;;;4916710;29;19927;-62
2021/10/10 15:21:29;;;;;;;;;;;15.10;84.00;;;;;;4913468;29;19927;-63
2021/10/10 15:24:19;;;;;;;;;;;15.00;83.80;;;;;;4911731;29;19928;-63
2021/10/10 15:27:09;;;;;;;;;;;15.00;83.90;;;;;;4919541;29;20013;-63
2021/10/10 15:29:58;;;;;;;;;;;15.00;84.20;;;;;;4903529;29;19954;-62
2021/10/10 15:33:07;;;;;;;;;;;14.90;84.50;;;;;;4916371;29;20430;-62
2021/10/10 15:35:57;;;;;;;;;;;14.90;84.30;;;;;;4911814;29;20101;-63
2021/10/10 15:38:46;;;;;;;;;;;14.80;84.00;;;;;;4913270;29;19970;-62
2021/10/10 15:41:35;;;;;;;;;;;14.80;83.90;;;;;;4913724;29;20347;-63
2021/10/10 15:44:25;;;;;;;;;;;14.70;84.00;;;;;;4914151;29;20055;-62
2021/10/10 15:47:14;;;;;;;;;;;14.60;83.60;;;;;;4908365;29;20334;-62
2021/10/10 15:50:03;;;;;;;;;;;14.60;84.80;;;;;;4915106;29;20004;-62
2021/10/10 15:53:00;;;;;;;;;;;14.50;84.80;;;;;;4921081;29;19931;-65
2021/10/10 15:55:49;;;;;;;;;;;14.50;85.20;;;;;;4924489;29;19935;-63
2021/10/10 15:58:41;;;;;;;;;;;14.40;86.30;;;;;;4920955;28;19930;-64
2021/10/10 16:01:30;;;;;;;;;;;14.30;87.20;;;;;;4900706;29;20075;-63
2021/10/10 16:04:20;;;;;;;;;;;14.30;87.20;;;;;;4921523;29;19934;-62
2021/10/10 16:07:14;;;;;;;;;;;14.20;86.70;;;;;;4916806;29;19998;-63
2021/10/10 16:10:05;;;;;;;;;;;14.20;87.00;;;;;;4914441;29;19935;-63
2021/10/10 16:12:56;;;;;;;;;;;14.10;87.70;;;;;;4919582;29;20022;-63
2021/10/10 16:15:45;;;;;;;;;;;14.10;89.00;;;;;;4908848;29;20252;-63
2021/10/10 16:18:35;;;;;;;;;;;14.00;89.40;;;;;;4913979;29;20328;-64
2021/10/10 16:21:27;;;;;;;;;;;14.00;89.70;;;;;;4900159;29;19935;-64
2021/10/10 16:24:17;;;;;;;;;;;14.00;89.00;;;;;;4911223;29;19951;-64
2021/10/10 16:27:08;;;;;;;;;;;13.90;89.00;;;;;;4918108;29;20033;-65
2021/10/10 16:29:57;;;;;;;;;;;13.90;89.70;;;;;;4920051;29;19927;-65
2021/10/10 16:32:48;;;;;;;;;;;13.80;90.20;;;;;;4920808;29;20239;-65
2021/10/10 16:35:43;;;;;;;;;;;13.80;90.70;;;;;;4921517;29;20003;-65
2021/10/10 16:38:36;;;;;;;;;;;13.70;90.80;;;;;;4917693;29;19951;-66
2021/10/10 16:41:59;;;;;;;;;;;13.60;90.80;;;;;;4911851;29;20268;-65
2021/10/10 16:44:48;;;;;;;;;;;13.60;91.50;;;;;;4927848;29;19931;-65
2021/10/10 17:00:48;;;;;;;;;;;13.30;91.60;;;;;;4888340;29;19935;-67
2021/10/10 17:03:38;;;;;;;;;;;13.20;92.00;;;;;;4897442;29;19928;-64
2021/10/10 17:06:27;;;;;;;;;;;13.10;92.10;;;;;;4895060;29;20007;-64
2021/10/10 17:09:40;;;;;;;;;;;13.10;92.30;;;;;;4898528;29;19928;-64
2021/10/10 17:12:31;;;;;;;;;;;13.00;92.60;;;;;;4879891;29;20001;-63
2021/10/10 17:15:21;;;;;;;;;;;13.00;92.70;;;;;;4889472;29;19948;-64
2021/10/10 17:18:11;;;;;;;;;;;12.90;92.90;;;;;;4896042;29;19941;-64
2021/10/10 17:21:01;;;;;;;;;;;12.90;93.10;;;;;;4894916;29;19928;-64